createdAt,value
2019-03-06T00:00:53.477Z,975.77
2019-03-06T00:01:53.478Z,975.84
2019-03-06T00:02:53.452Z,975.74
2019-03-06T00:03:53.436Z,975.79
2019-03-06T00:04:53.426Z,975.84
2019-03-06T00:05:53.556Z,975.78
2019-03-06T00:06:53.407Z,975.82
2019-03-06T00:07:53.445Z,975.77
2019-03-06T00:08:53.388Z,975.84
2019-03-06T00:09:53.371Z,975.84
2019-03-06T00:10:53.362Z,975.79
2019-03-06T00:11:53.365Z,975.79
2019-03-06T00:12:53.343Z,975.84
2019-03-06T00:13:53.378Z,975.73
2019-03-06T00:14:53.329Z,975.73
2019-03-06T00:15:53.332Z,975.82
2019-03-06T00:16:53.300Z,975.80
2019-03-06T00:17:53.301Z,975.86
2019-03-06T00:18:53.284Z,975.80
2019-03-06T00:19:53.319Z,975.79
2019-03-06T00:20:53.274Z,975.80
2019-03-06T00:21:53.245Z,975.85
2019-03-06T00:22:53.268Z,975.73
2019-03-06T00:23:53.227Z,975.76
2019-03-06T00:24:53.224Z,975.80
2019-03-06T00:25:53.262Z,975.71
2019-03-06T00:26:53.207Z,975.73
2019-03-06T00:27:53.202Z,975.68
2019-03-06T00:28:53.175Z,975.68
2019-03-06T00:29:53.166Z,975.73
2019-03-06T00:30:53.156Z,975.72
2019-03-06T00:31:53.201Z,975.74
2019-03-06T00:32:53.137Z,975.60
2019-03-06T00:33:53.131Z,975.61
2019-03-06T00:34:53.108Z,975.62
2019-03-06T00:35:53.101Z,975.63
2019-03-06T00:36:53.091Z,975.65
2019-03-06T00:37:53.139Z,975.66
2019-03-06T00:38:53.079Z,975.64
2019-03-06T00:39:53.059Z,975.62
2019-03-06T00:40:53.053Z,975.58
2019-03-06T00:41:53.049Z,975.52
2019-03-06T00:42:53.036Z,975.58
2019-03-06T00:43:53.069Z,975.59
2019-03-06T00:44:53.015Z,975.59
2019-03-06T00:45:52.999Z,975.59
2019-03-06T00:46:53.005Z,975.61
2019-03-06T00:47:52.976Z,975.49
2019-03-06T00:48:52.966Z,975.60
2019-03-06T00:49:52.990Z,975.54
2019-03-06T00:50:52.951Z,975.56
2019-03-06T00:51:52.935Z,975.59
2019-03-06T00:52:52.925Z,975.56
2019-03-06T00:53:52.911Z,975.51
2019-03-06T00:54:52.908Z,975.46
2019-03-06T00:55:52.941Z,975.58
2019-03-06T00:56:52.895Z,975.56
2019-03-06T00:57:52.870Z,975.49
2019-03-06T00:58:52.867Z,975.42
2019-03-06T00:59:52.858Z,975.46
2019-03-06T01:00:52.841Z,975.42
2019-03-06T01:01:52.890Z,975.31
2019-03-06T01:02:52.828Z,975.33
2019-03-06T01:03:52.810Z,975.38
2019-03-06T01:04:52.801Z,975.31
2019-03-06T01:05:52.921Z,975.25
2019-03-06T01:06:52.783Z,975.24
2019-03-06T01:07:52.809Z,975.23
2019-03-06T01:08:52.761Z,975.26
2019-03-06T01:09:52.748Z,975.36
2019-03-06T01:10:52.738Z,975.30
2019-03-06T01:11:52.726Z,975.28
2019-03-06T01:12:52.715Z,975.31
2019-03-06T01:13:52.754Z,975.34
2019-03-06T01:14:52.706Z,975.34
2019-03-06T01:15:52.681Z,975.30
2019-03-06T01:16:52.671Z,975.25
2019-03-06T01:17:52.667Z,975.33
2019-03-06T01:18:52.668Z,975.31
2019-03-06T01:19:52.687Z,975.28
2019-03-06T01:20:52.629Z,975.16
2019-03-06T01:21:52.616Z,975.20
2019-03-06T01:22:52.610Z,975.21
2019-03-06T01:23:52.607Z,975.26
2019-03-06T01:24:52.592Z,975.14
2019-03-06T01:25:52.629Z,975.15
2019-03-06T01:26:52.584Z,975.11
2019-03-06T01:27:52.562Z,975.12
2019-03-06T01:28:52.543Z,975.13
2019-03-06T01:29:52.533Z,975.10
2019-03-06T01:30:52.533Z,975.07
2019-03-06T01:31:52.533Z,975.05
2019-03-06T01:32:52.493Z,975.04
2019-03-06T01:33:52.493Z,975.07
2019-03-06T01:34:52.480Z,974.96
2019-03-06T01:35:52.480Z,975.03
2019-03-06T01:36:52.464Z,975.10
2019-03-06T01:37:52.500Z,975.03
2019-03-06T01:38:52.439Z,974.98
2019-03-06T01:39:52.426Z,974.99
2019-03-06T01:40:52.413Z,975.02
2019-03-06T01:41:52.407Z,974.93
2019-03-06T01:42:52.403Z,974.97
2019-03-06T01:43:52.435Z,974.93
2019-03-06T01:44:52.375Z,974.97
2019-03-06T01:45:52.372Z,974.97
2019-03-06T01:46:52.358Z,974.93
2019-03-06T01:47:52.342Z,975.01
2019-03-06T01:48:52.333Z,975.03
2019-03-06T01:49:52.375Z,974.99
2019-03-06T01:50:52.318Z,974.94
2019-03-06T01:51:52.302Z,974.93
2019-03-06T01:52:52.289Z,974.90
2019-03-06T01:53:52.283Z,974.89
2019-03-06T01:54:52.289Z,974.86
2019-03-06T01:55:52.311Z,974.81
2019-03-06T01:56:52.247Z,974.85
2019-03-06T01:57:52.235Z,974.84
2019-03-06T01:58:52.225Z,974.80
2019-03-06T01:59:52.209Z,974.73
2019-03-06T02:00:52.202Z,974.71
2019-03-06T02:01:52.286Z,974.68
2019-03-06T02:02:52.184Z,974.66
2019-03-06T02:03:52.174Z,974.62
2019-03-06T02:04:52.161Z,974.59
2019-03-06T02:05:52.165Z,974.64
2019-03-06T02:06:52.136Z,974.61
2019-03-06T02:07:52.187Z,974.57
2019-03-06T02:08:52.155Z,974.57
2019-03-06T02:09:52.116Z,974.60
2019-03-06T02:10:52.097Z,974.61
2019-03-06T02:11:52.087Z,974.56
2019-03-06T02:12:52.094Z,974.57
2019-03-06T02:13:52.128Z,974.61
2019-03-06T02:14:52.055Z,974.57
2019-03-06T02:15:52.045Z,974.59
2019-03-06T02:16:52.036Z,974.52
2019-03-06T02:17:52.017Z,974.52
2019-03-06T02:18:52.019Z,974.56
2019-03-06T02:19:52.046Z,974.46
2019-03-06T02:20:51.994Z,974.58
2019-03-06T02:21:51.985Z,974.49
2019-03-06T02:22:52.011Z,974.43
2019-03-06T02:23:51.959Z,974.44
2019-03-06T02:24:51.941Z,974.41
2019-03-06T02:25:51.988Z,974.39
2019-03-06T02:26:51.924Z,974.41
2019-03-06T02:27:51.921Z,974.38
2019-03-06T02:28:51.913Z,974.43
2019-03-06T02:29:51.902Z,974.35
2019-03-06T02:30:51.892Z,974.39
2019-03-06T02:31:51.902Z,974.32
2019-03-06T02:32:51.871Z,974.35
2019-03-06T02:33:51.858Z,974.36
2019-03-06T02:34:51.854Z,974.35
2019-03-06T02:35:51.833Z,974.36
2019-03-06T02:36:51.827Z,974.31
2019-03-06T02:37:51.865Z,974.31
2019-03-06T02:38:51.805Z,974.32
2019-03-06T02:39:51.799Z,974.32
2019-03-06T02:40:51.797Z,974.37
2019-03-06T02:41:51.784Z,974.35
2019-03-06T02:42:51.762Z,974.36
2019-03-06T02:43:51.808Z,974.35
2019-03-06T02:44:51.741Z,974.37
2019-03-06T02:45:51.726Z,974.31
2019-03-06T02:46:51.726Z,974.34
2019-03-06T02:47:51.721Z,974.36
2019-03-06T02:48:51.706Z,974.40
2019-03-06T02:49:51.758Z,974.27
2019-03-06T02:50:51.682Z,974.41
2019-03-06T02:51:51.663Z,974.26
2019-03-06T02:52:51.655Z,974.30
2019-03-06T02:53:51.638Z,974.30
2019-03-06T02:54:51.632Z,974.27
2019-03-06T02:55:51.687Z,974.29
2019-03-06T02:56:51.620Z,974.26
2019-03-06T02:57:51.599Z,974.24
2019-03-06T02:58:51.622Z,974.22
2019-03-06T02:59:51.577Z,974.19
2019-03-06T03:00:51.565Z,974.19
2019-03-06T03:01:51.620Z,974.14
2019-03-06T03:02:51.551Z,974.24
2019-03-06T03:03:51.547Z,974.21
2019-03-06T03:04:51.526Z,974.20
2019-03-06T03:05:51.514Z,974.21
2019-03-06T03:06:51.511Z,974.14
2019-03-06T03:07:51.514Z,974.10
2019-03-06T03:08:51.486Z,974.06
2019-03-06T03:09:51.478Z,974.15
2019-03-06T03:10:51.463Z,974.07
2019-03-06T03:11:51.457Z,974.10
2019-03-06T03:12:51.450Z,974.07
2019-03-06T03:13:51.482Z,974.05
2019-03-06T03:14:51.425Z,974.11
2019-03-06T03:15:51.414Z,974.10
2019-03-06T03:16:51.411Z,974.10
2019-03-06T03:17:51.395Z,974.11
2019-03-06T03:18:51.377Z,974.03
2019-03-06T03:19:51.421Z,974.04
2019-03-06T03:20:51.366Z,974.05
2019-03-06T03:21:51.354Z,973.97
2019-03-06T03:22:51.354Z,973.98
2019-03-06T03:23:51.344Z,973.97
2019-03-06T03:24:51.324Z,973.93
2019-03-06T03:25:51.365Z,973.99
2019-03-06T03:26:51.310Z,973.98
2019-03-06T03:27:51.294Z,973.89
2019-03-06T03:28:51.277Z,973.91
2019-03-06T03:29:51.312Z,973.86
2019-03-06T03:30:51.280Z,973.87
2019-03-06T03:31:51.296Z,973.89
2019-03-06T03:32:51.276Z,973.93
2019-03-06T03:33:51.233Z,973.99
2019-03-06T03:34:51.223Z,973.99
2019-03-06T03:35:51.213Z,973.96
2019-03-06T03:36:51.192Z,973.95
2019-03-06T03:37:51.205Z,973.98
2019-03-06T03:38:51.183Z,973.95
2019-03-06T03:39:51.161Z,973.96
2019-03-06T03:40:51.158Z,973.97
2019-03-06T03:41:51.154Z,974.02
2019-03-06T03:42:51.133Z,973.98
2019-03-06T03:43:51.196Z,973.93
2019-03-06T03:44:51.110Z,973.96
2019-03-06T03:45:51.109Z,973.95
2019-03-06T03:46:51.095Z,973.88
2019-03-06T03:47:51.085Z,973.77
2019-03-06T03:48:51.074Z,973.79
2019-03-06T03:49:51.127Z,973.80
2019-03-06T03:50:51.047Z,973.85
2019-03-06T03:51:51.049Z,973.78
2019-03-06T03:52:51.027Z,973.76
2019-03-06T03:53:51.018Z,973.73
2019-03-06T03:54:51.009Z,973.79
2019-03-06T03:55:51.046Z,973.83
2019-03-06T03:56:51.000Z,973.86
2019-03-06T03:57:50.977Z,973.79
2019-03-06T03:58:50.966Z,973.73
2019-03-06T03:59:50.955Z,973.72
2019-03-06T04:00:50.943Z,973.70
2019-03-06T04:01:50.983Z,973.67
2019-03-06T04:02:50.951Z,973.69
2019-03-06T04:03:50.923Z,973.65
2019-03-06T04:04:50.902Z,973.57
2019-03-06T04:05:50.889Z,973.59
2019-03-06T04:06:50.899Z,973.56
2019-03-06T04:07:50.922Z,973.51
2019-03-06T04:08:50.856Z,973.45
2019-03-06T04:09:50.851Z,973.47
2019-03-06T04:10:50.838Z,973.38
2019-03-06T04:11:50.830Z,973.55
2019-03-06T04:12:50.816Z,973.63
2019-03-06T04:13:50.847Z,973.61
2019-03-06T04:14:50.798Z,973.61
2019-03-06T04:15:50.803Z,973.45
2019-03-06T04:16:50.776Z,973.47
2019-03-06T04:17:50.783Z,973.49
2019-03-06T04:18:50.750Z,973.56
2019-03-06T04:19:50.789Z,973.55
2019-03-06T04:20:50.731Z,973.53
2019-03-06T04:21:50.736Z,973.48
2019-03-06T04:22:50.714Z,973.55
2019-03-06T04:23:50.699Z,973.55
2019-03-06T04:24:50.693Z,973.52
2019-03-06T04:25:50.730Z,973.44
2019-03-06T04:26:50.669Z,973.45
2019-03-06T04:27:50.654Z,973.43
2019-03-06T04:28:50.654Z,973.52
2019-03-06T04:29:50.648Z,973.38
2019-03-06T04:30:50.625Z,973.44
2019-03-06T04:31:50.663Z,973.40
2019-03-06T04:32:50.602Z,973.35
2019-03-06T04:33:50.599Z,973.42
2019-03-06T04:34:50.612Z,973.41
2019-03-06T04:35:50.571Z,973.42
2019-03-06T04:36:50.569Z,973.39
2019-03-06T04:37:50.611Z,973.38
2019-03-06T04:38:50.538Z,973.36
2019-03-06T04:39:50.534Z,973.33
2019-03-06T04:40:50.535Z,973.39
2019-03-06T04:41:50.511Z,973.32
2019-03-06T04:42:51.014Z,973.32
2019-03-06T04:43:50.505Z,973.36
2019-03-06T04:44:50.478Z,973.27
2019-03-06T04:45:50.468Z,973.30
2019-03-06T04:46:50.483Z,973.27
2019-03-06T04:47:50.451Z,973.22
2019-03-06T04:48:50.465Z,973.30
2019-03-06T04:49:52.965Z,973.22
2019-03-06T04:50:50.416Z,973.22
2019-03-06T04:51:50.407Z,973.18
2019-03-06T04:52:50.403Z,973.17
2019-03-06T04:53:50.400Z,973.18
2019-03-06T04:54:50.372Z,973.13
2019-03-06T04:55:50.467Z,973.19
2019-03-06T04:56:50.352Z,973.26
2019-03-06T04:57:50.343Z,973.18
2019-03-06T04:58:50.339Z,973.20
2019-03-06T04:59:50.322Z,973.15
2019-03-06T05:00:50.314Z,973.12
2019-03-06T05:01:57.648Z,973.17
2019-03-06T05:02:50.288Z,973.02
2019-03-06T05:03:50.278Z,973.08
2019-03-06T05:04:50.266Z,973.02
2019-03-06T05:05:50.256Z,973.01
2019-03-06T05:06:50.250Z,973.02
2019-03-06T05:07:50.288Z,972.99
2019-03-06T05:08:50.227Z,972.98
2019-03-06T05:09:50.214Z,972.95
2019-03-06T05:10:50.204Z,973.02
2019-03-06T05:11:50.195Z,972.94
2019-03-06T05:12:50.182Z,972.99
2019-03-06T05:13:50.226Z,972.97
2019-03-06T05:14:50.163Z,972.96
2019-03-06T05:15:50.155Z,972.97
2019-03-06T05:16:50.138Z,972.99
2019-03-06T05:17:50.133Z,973.00
2019-03-06T05:18:50.117Z,972.92
2019-03-06T05:19:50.131Z,972.90
2019-03-06T05:20:50.102Z,972.93
2019-03-06T05:21:50.088Z,972.94
2019-03-06T05:22:50.085Z,972.88
2019-03-06T05:23:50.069Z,972.93
2019-03-06T05:24:50.059Z,972.91
2019-03-06T05:25:50.065Z,972.85
2019-03-06T05:26:50.036Z,972.87
2019-03-06T05:27:50.030Z,972.81
2019-03-06T05:28:50.017Z,972.77
2019-03-06T05:29:50.005Z,972.84
2019-03-06T05:30:50.000Z,972.80
2019-03-06T05:31:50.001Z,972.76
2019-03-06T05:32:49.984Z,972.79
2019-03-06T05:33:49.964Z,972.78
2019-03-06T05:34:49.957Z,972.73
2019-03-06T05:35:49.945Z,972.82
2019-03-06T05:36:49.934Z,972.81
2019-03-06T05:37:49.938Z,972.77
2019-03-06T05:38:49.915Z,972.76
2019-03-06T05:39:49.900Z,972.76
2019-03-06T05:40:49.890Z,972.75
2019-03-06T05:41:49.884Z,972.69
2019-03-06T05:42:49.872Z,972.68
2019-03-06T05:43:49.881Z,972.68
2019-03-06T05:44:49.855Z,972.72
2019-03-06T05:45:49.843Z,972.64
2019-03-06T05:46:49.826Z,972.63
2019-03-06T05:47:49.819Z,972.69
2019-03-06T05:48:49.810Z,972.62
2019-03-06T05:49:49.813Z,972.63
2019-03-06T05:50:49.784Z,972.60
2019-03-06T05:51:49.775Z,972.58
2019-03-06T05:52:49.762Z,972.57
2019-03-06T05:53:49.752Z,972.61
2019-03-06T05:54:49.750Z,972.60
2019-03-06T05:55:49.840Z,972.62
2019-03-06T05:56:49.723Z,972.61
2019-03-06T05:57:49.711Z,972.58
2019-03-06T05:58:49.702Z,972.57
2019-03-06T05:59:49.688Z,972.55
2019-03-06T06:00:49.679Z,972.48
2019-03-06T06:01:49.689Z,972.55
2019-03-06T06:02:49.656Z,972.56
2019-03-06T06:03:49.648Z,972.50
2019-03-06T06:04:49.644Z,972.52
2019-03-06T06:05:49.625Z,972.46
2019-03-06T06:06:49.615Z,972.46
2019-03-06T06:07:49.621Z,972.48
2019-03-06T06:08:49.596Z,972.46
2019-03-06T06:09:49.588Z,972.41
2019-03-06T06:10:49.576Z,972.39
2019-03-06T06:11:49.567Z,972.45
2019-03-06T06:12:49.551Z,972.43
2019-03-06T06:13:49.557Z,972.43
2019-03-06T06:14:49.535Z,972.38
2019-03-06T06:15:49.519Z,972.34
2019-03-06T06:16:49.511Z,972.33
2019-03-06T06:17:49.500Z,972.32
2019-03-06T06:18:49.489Z,972.36
2019-03-06T06:19:49.500Z,972.38
2019-03-06T06:20:49.464Z,972.41
2019-03-06T06:21:49.455Z,972.40
2019-03-06T06:22:49.445Z,972.32
2019-03-06T06:23:49.433Z,972.34
2019-03-06T06:24:49.433Z,972.36
2019-03-06T06:25:49.428Z,972.34
2019-03-06T06:26:49.400Z,972.29
2019-03-06T06:27:49.392Z,972.38
2019-03-06T06:28:49.381Z,972.34
2019-03-06T06:29:49.372Z,972.37
2019-03-06T06:30:49.362Z,972.29
2019-03-06T06:31:49.368Z,972.31
2019-03-06T06:32:49.342Z,972.29
2019-03-06T06:33:49.330Z,972.30
2019-03-06T06:34:49.318Z,972.30
2019-03-06T06:35:49.307Z,972.31
2019-03-06T06:36:49.300Z,972.26
2019-03-06T06:37:49.310Z,972.29
2019-03-06T06:38:49.277Z,972.25
2019-03-06T06:39:49.267Z,972.21
2019-03-06T06:40:49.254Z,972.29
2019-03-06T06:41:49.245Z,972.30
2019-03-06T06:42:49.235Z,972.42
2019-03-06T06:43:49.239Z,972.34
2019-03-06T06:44:49.213Z,972.38
2019-03-06T06:45:49.203Z,972.26
2019-03-06T06:46:49.193Z,972.25
2019-03-06T06:47:49.187Z,972.32
2019-03-06T06:48:49.171Z,972.34
2019-03-06T06:49:49.183Z,972.33
2019-03-06T06:50:49.152Z,972.22
2019-03-06T06:51:49.143Z,972.23
2019-03-06T06:52:49.136Z,972.24
2019-03-06T06:53:49.117Z,972.19
2019-03-06T06:54:49.108Z,972.20
2019-03-06T06:55:49.114Z,972.12
2019-03-06T06:56:49.085Z,972.09
2019-03-06T06:57:49.076Z,972.14
2019-03-06T06:58:49.066Z,972.11
2019-03-06T06:59:49.057Z,972.14
2019-03-06T07:00:49.049Z,972.09
2019-03-06T07:01:49.047Z,972.16
2019-03-06T07:02:49.024Z,972.08
2019-03-06T07:03:49.012Z,972.11
2019-03-06T07:04:49.012Z,972.18
2019-03-06T07:05:48.994Z,972.13
2019-03-06T07:06:48.981Z,972.19
2019-03-06T07:07:48.994Z,972.12
2019-03-06T07:08:49.374Z,972.05
2019-03-06T07:09:48.951Z,972.04
2019-03-06T07:10:48.938Z,972.14
2019-03-06T07:11:48.929Z,972.09
2019-03-06T07:12:48.922Z,972.02
2019-03-06T07:13:48.930Z,972.12
2019-03-06T07:14:48.899Z,972.02
2019-03-06T07:15:48.886Z,972.08
2019-03-06T07:16:48.877Z,972.06
2019-03-06T07:17:48.864Z,972.02
2019-03-06T07:18:48.866Z,972.04
2019-03-06T07:19:48.857Z,971.99
2019-03-06T07:20:48.847Z,971.96
2019-03-06T07:21:48.822Z,971.98
2019-03-06T07:22:48.812Z,971.95
2019-03-06T07:23:48.799Z,971.92
2019-03-06T07:24:48.797Z,971.93
2019-03-06T07:25:48.799Z,971.88
2019-03-06T07:26:48.767Z,971.86
2019-03-06T07:27:48.766Z,971.91
2019-03-06T07:28:48.755Z,971.82
2019-03-06T07:29:48.737Z,971.87
2019-03-06T07:30:48.727Z,971.87
2019-03-06T07:31:48.729Z,971.76
2019-03-06T07:32:48.708Z,971.73
2019-03-06T07:33:48.695Z,971.78
2019-03-06T07:34:48.682Z,971.79
2019-03-06T07:35:48.679Z,971.77
2019-03-06T07:36:48.663Z,971.72
2019-03-06T07:37:48.666Z,971.78
2019-03-06T07:38:48.641Z,971.77
2019-03-06T07:39:48.628Z,971.73
2019-03-06T07:40:48.620Z,971.80
2019-03-06T07:41:48.609Z,971.74
2019-03-06T07:42:48.596Z,971.71
2019-03-06T07:43:48.603Z,971.72
2019-03-06T07:44:48.577Z,971.70
2019-03-06T07:45:48.569Z,971.69
2019-03-06T07:46:48.556Z,971.70
2019-03-06T07:47:48.545Z,971.75
2019-03-06T07:48:48.532Z,971.73
2019-03-06T07:49:48.537Z,971.76
2019-03-06T07:50:48.517Z,971.69
2019-03-06T07:51:48.506Z,971.70
2019-03-06T07:52:48.489Z,971.78
2019-03-06T07:53:48.480Z,971.81
2019-03-06T07:54:48.470Z,971.80
2019-03-06T07:55:48.573Z,971.80
2019-03-06T07:56:48.451Z,971.76
2019-03-06T07:57:48.443Z,971.66
2019-03-06T07:58:48.432Z,971.73
2019-03-06T07:59:48.416Z,971.59
2019-03-06T08:00:48.406Z,971.66
2019-03-06T08:01:48.419Z,971.67
2019-03-06T08:02:48.384Z,971.70
2019-03-06T08:03:48.374Z,971.67
2019-03-06T08:04:48.361Z,971.58
2019-03-06T08:05:48.352Z,971.56
2019-03-06T08:06:48.361Z,971.59
2019-03-06T08:07:48.346Z,971.56
2019-03-06T08:08:48.326Z,971.57
2019-03-06T08:09:48.311Z,971.50
2019-03-06T08:10:48.301Z,971.47
2019-03-06T08:11:48.290Z,971.48
2019-03-06T08:12:48.281Z,971.53
2019-03-06T08:13:48.309Z,971.47
2019-03-06T08:14:48.258Z,971.50
2019-03-06T08:15:48.249Z,971.44
2019-03-06T08:16:48.236Z,971.51
2019-03-06T08:17:48.226Z,971.47
2019-03-06T08:18:48.214Z,971.41
2019-03-06T08:19:48.219Z,971.44
2019-03-06T08:20:48.194Z,971.40
2019-03-06T08:21:48.181Z,971.36
2019-03-06T08:22:48.171Z,971.36
2019-03-06T08:23:48.167Z,971.29
2019-03-06T08:24:48.162Z,971.25
2019-03-06T08:25:48.153Z,971.25
2019-03-06T08:26:48.131Z,971.24
2019-03-06T08:27:48.117Z,971.22
2019-03-06T08:28:48.104Z,971.23
2019-03-06T08:29:48.094Z,971.24
2019-03-06T08:30:48.085Z,971.25
2019-03-06T08:31:48.088Z,971.24
2019-03-06T08:32:48.068Z,971.30
2019-03-06T08:33:48.053Z,971.23
2019-03-06T08:34:48.040Z,971.24
2019-03-06T08:35:48.031Z,971.22
2019-03-06T08:36:48.022Z,971.16
2019-03-06T08:37:48.029Z,971.18
2019-03-06T08:38:48.001Z,971.20
2019-03-06T08:39:47.991Z,971.17
2019-03-06T08:40:47.978Z,971.09
2019-03-06T08:41:47.966Z,971.10
2019-03-06T08:42:47.959Z,971.09
2019-03-06T08:43:47.960Z,971.02
2019-03-06T08:44:47.933Z,971.12
2019-03-06T08:45:47.927Z,971.09
2019-03-06T08:46:47.912Z,971.11
2019-03-06T08:47:47.906Z,971.06
2019-03-06T08:48:47.892Z,971.03
2019-03-06T08:49:47.892Z,970.99
2019-03-06T08:50:47.871Z,971.01
2019-03-06T08:51:47.857Z,971.01
2019-03-06T08:52:47.847Z,970.97
2019-03-06T08:53:47.841Z,971.01
2019-03-06T08:54:47.825Z,970.91
2019-03-06T08:55:47.860Z,970.91
2019-03-06T08:56:47.800Z,970.87
2019-03-06T08:57:47.792Z,970.97
2019-03-06T08:58:47.784Z,971.00
2019-03-06T08:59:47.770Z,970.94
2019-03-06T09:00:47.761Z,970.93
2019-03-06T09:01:47.764Z,970.95
2019-03-06T09:02:47.745Z,970.88
2019-03-06T09:03:47.728Z,970.95
2019-03-06T09:04:47.722Z,970.90
2019-03-06T09:05:47.705Z,970.84
2019-03-06T09:06:47.702Z,970.91
2019-03-06T09:07:47.701Z,970.90
2019-03-06T09:08:47.672Z,970.86
2019-03-06T09:09:47.664Z,970.87
2019-03-06T09:10:47.650Z,970.92
2019-03-06T09:11:47.650Z,970.93
2019-03-06T09:12:47.634Z,970.84
2019-03-06T09:13:47.641Z,970.91
2019-03-06T09:14:47.609Z,970.91
2019-03-06T09:15:47.600Z,970.92
2019-03-06T09:16:47.587Z,970.84
2019-03-06T09:17:47.576Z,970.85
2019-03-06T09:18:47.567Z,970.81
2019-03-06T09:19:47.571Z,970.76
2019-03-06T09:20:47.545Z,970.69
2019-03-06T09:21:47.535Z,970.72
2019-03-06T09:22:47.522Z,970.80
2019-03-06T09:23:47.515Z,970.65
2019-03-06T09:24:47.504Z,970.69
2019-03-06T09:25:47.511Z,970.73
2019-03-06T09:26:47.484Z,970.67
2019-03-06T09:27:47.472Z,970.71
2019-03-06T09:28:47.459Z,970.69
2019-03-06T09:29:47.455Z,970.65
2019-03-06T09:30:47.440Z,970.69
2019-03-06T09:31:47.469Z,970.72
2019-03-06T09:32:47.423Z,970.69
2019-03-06T09:33:47.408Z,970.69
2019-03-06T09:34:47.398Z,970.67
2019-03-06T09:35:47.385Z,970.68
2019-03-06T09:36:47.376Z,970.65
2019-03-06T09:37:47.379Z,970.70
2019-03-06T09:38:47.353Z,970.61
2019-03-06T09:39:47.341Z,970.67
2019-03-06T09:40:47.334Z,970.63
2019-03-06T09:41:47.328Z,970.59
2019-03-06T09:42:47.321Z,970.54
2019-03-06T09:43:47.314Z,970.63
2019-03-06T09:44:47.287Z,970.53
2019-03-06T09:45:47.281Z,970.50
2019-03-06T09:46:47.264Z,970.45
2019-03-06T09:47:47.254Z,970.50
2019-03-06T09:48:47.245Z,970.47
2019-03-06T09:49:47.281Z,970.48
2019-03-06T09:50:47.229Z,970.49
2019-03-06T09:51:47.216Z,970.49
2019-03-06T09:52:47.200Z,970.53
2019-03-06T09:53:47.193Z,970.50
2019-03-06T09:54:47.185Z,970.46
2019-03-06T09:55:47.222Z,970.51
2019-03-06T09:56:47.158Z,970.44
2019-03-06T09:57:47.145Z,970.47
2019-03-06T09:58:47.136Z,970.50
2019-03-06T09:59:47.126Z,970.54
2019-03-06T10:00:47.113Z,970.42
2019-03-06T10:01:47.148Z,970.36
2019-03-06T10:02:47.094Z,970.24
2019-03-06T10:03:47.086Z,970.27
2019-03-06T10:04:47.075Z,970.30
2019-03-06T10:05:47.059Z,970.28
2019-03-06T10:06:47.058Z,970.34
2019-03-06T10:07:47.091Z,970.26
2019-03-06T10:08:47.029Z,970.31
2019-03-06T10:09:47.024Z,970.35
2019-03-06T10:10:57.055Z,970.32
2019-03-06T10:11:47.994Z,970.31
2019-03-06T10:12:47.711Z,970.30
2019-03-06T10:13:47.040Z,970.25
2019-03-06T10:14:46.963Z,970.33
2019-03-06T10:15:46.959Z,970.39
2019-03-06T10:16:49.051Z,970.34
2019-03-06T10:17:46.934Z,970.22
2019-03-06T10:18:46.921Z,970.23
2019-03-06T10:19:46.928Z,970.17
2019-03-06T10:20:46.900Z,970.13
2019-03-06T10:21:46.891Z,970.18
2019-03-06T10:22:48.851Z,970.22
2019-03-06T10:23:48.923Z,970.20
2019-03-06T10:24:46.870Z,970.24
2019-03-06T10:25:46.858Z,970.20
2019-03-06T10:26:46.836Z,970.22
2019-03-06T10:27:46.823Z,970.27
2019-03-06T10:28:46.815Z,970.29
2019-03-06T10:29:46.804Z,970.22
2019-03-06T10:30:46.791Z,970.10
2019-03-06T10:31:46.799Z,970.13
2019-03-06T10:32:46.775Z,970.19
2019-03-06T10:33:46.759Z,970.16
2019-03-06T10:34:46.753Z,970.12
2019-03-06T10:35:46.740Z,970.16
2019-03-06T10:36:46.728Z,970.13
2019-03-06T10:37:46.730Z,970.11
2019-03-06T10:38:46.711Z,970.11
2019-03-06T10:39:46.693Z,970.03
2019-03-06T10:40:46.686Z,969.98
2019-03-06T10:41:46.673Z,970.03
2019-03-06T10:42:46.665Z,970.01
2019-03-06T10:43:49.141Z,970.06
2019-03-06T10:44:46.642Z,970.04
2019-03-06T10:45:46.631Z,970.04
2019-03-06T10:46:46.619Z,970.02
2019-03-06T10:47:46.610Z,970.01
2019-03-06T10:48:48.362Z,969.98
2019-03-06T10:49:46.607Z,970.06
2019-03-06T10:50:46.585Z,970.02
2019-03-06T10:51:46.568Z,969.98
2019-03-06T10:52:46.555Z,969.97
2019-03-06T10:53:46.545Z,969.89
2019-03-06T10:54:46.536Z,969.92
2019-03-06T10:55:46.541Z,969.87
2019-03-06T10:56:46.512Z,969.79
2019-03-06T10:57:46.503Z,969.77
2019-03-06T10:58:46.494Z,969.82
2019-03-06T10:59:46.481Z,969.79
2019-03-06T11:00:46.471Z,969.71
2019-03-06T11:01:50.381Z,969.77
2019-03-06T11:02:53.493Z,969.80
2019-03-06T11:03:46.435Z,969.79
2019-03-06T11:04:46.427Z,969.74
2019-03-06T11:05:46.420Z,969.64
2019-03-06T11:06:46.411Z,969.62
2019-03-06T11:07:46.410Z,969.61
2019-03-06T11:08:46.410Z,969.53
2019-03-06T11:09:46.430Z,969.52
2019-03-06T11:10:46.394Z,969.64
2019-03-06T11:11:46.358Z,969.57
2019-03-06T11:12:46.385Z,969.56
2019-03-06T11:13:46.347Z,969.56
2019-03-06T11:14:46.350Z,969.68
2019-03-06T11:15:55.173Z,969.64
2019-03-06T11:16:47.308Z,969.52
2019-03-06T11:17:46.323Z,969.53
2019-03-06T11:18:46.303Z,969.49
2019-03-06T11:19:46.362Z,969.48
2019-03-06T11:20:46.265Z,969.49
2019-03-06T11:21:46.294Z,969.49
2019-03-06T11:22:46.283Z,969.48
2019-03-06T11:23:46.293Z,969.45
2019-03-06T11:24:46.258Z,969.39
2019-03-06T11:25:46.222Z,969.37
2019-03-06T11:26:46.193Z,969.35
2019-03-06T11:27:46.229Z,969.40
2019-03-06T11:28:46.182Z,969.43
2019-03-06T11:29:46.187Z,969.32
2019-03-06T11:30:46.152Z,969.32
2019-03-06T11:31:46.288Z,969.25
2019-03-06T11:32:54.327Z,969.29
2019-03-06T11:33:47.112Z,969.19
2019-03-06T11:34:46.106Z,969.17
2019-03-06T11:35:46.103Z,969.14
2019-03-06T11:36:46.087Z,969.22
2019-03-06T11:37:46.097Z,969.25
2019-03-06T11:38:46.061Z,969.24
2019-03-06T11:39:46.055Z,969.19
2019-03-06T11:40:46.039Z,969.24
2019-03-06T11:41:46.093Z,969.21
2019-03-06T11:42:46.023Z,969.17
2019-03-06T11:43:46.026Z,969.12
2019-03-06T11:44:45.997Z,969.14
2019-03-06T11:45:46.039Z,969.06
2019-03-06T11:46:45.978Z,969.12
2019-03-06T11:47:45.965Z,969.12
2019-03-06T11:48:45.962Z,969.10
2019-03-06T11:49:45.986Z,969.09
2019-03-06T11:50:45.947Z,968.98
2019-03-06T11:51:45.924Z,969.05
2019-03-06T11:52:45.914Z,969.03
2019-03-06T11:53:45.904Z,969.01
2019-03-06T11:54:45.897Z,969.11
2019-03-06T11:55:45.894Z,969.04
2019-03-06T11:56:45.875Z,969.00
2019-03-06T11:57:45.878Z,969.00
2019-03-06T11:58:45.852Z,968.98
2019-03-06T11:59:45.837Z,969.03
2019-03-06T12:00:45.837Z,969.04
2019-03-06T12:01:48.293Z,968.98
2019-03-06T12:02:45.808Z,969.06
2019-03-06T12:03:45.794Z,968.97
2019-03-06T12:04:45.798Z,969.05
2019-03-06T12:05:45.772Z,969.02
2019-03-06T12:06:45.766Z,969.00
2019-03-06T12:07:45.766Z,969.06
2019-03-06T12:08:46.164Z,969.03
2019-03-06T12:09:45.750Z,968.99
2019-03-06T12:10:45.721Z,969.05
2019-03-06T12:11:45.711Z,968.97
2019-03-06T12:12:45.705Z,968.93
2019-03-06T12:13:45.709Z,968.97
2019-03-06T12:14:45.679Z,968.92
2019-03-06T12:15:45.670Z,968.94
2019-03-06T12:16:45.653Z,968.87
2019-03-06T12:17:45.673Z,968.91
2019-03-06T12:18:45.646Z,968.89
2019-03-06T12:19:45.669Z,968.92
2019-03-06T12:20:45.608Z,968.91
2019-03-06T12:21:45.624Z,968.87
2019-03-06T12:22:45.593Z,968.87
2019-03-06T12:23:45.602Z,968.87
2019-03-06T12:24:45.580Z,968.78
2019-03-06T12:25:45.576Z,968.81
2019-03-06T12:26:45.551Z,968.81
2019-03-06T12:27:45.541Z,968.87
2019-03-06T12:28:45.544Z,968.79